createdAt,value
2022-11-15T00:00:22.063Z,36.15
2022-11-15T00:05:41.144Z,36.30
2022-11-15T00:11:04.100Z,36.08
2022-11-15T00:16:23.170Z,35.80
2022-11-15T00:21:42.331Z,37.95
2022-11-15T00:27:05.461Z,37.40
2022-11-15T00:32:27.077Z,37.10
2022-11-15T00:37:47.549Z,38.85
2022-11-15T00:43:08.329Z,38.13
2022-11-15T00:48:27.374Z,38.80
2022-11-15T00:53:46.717Z,38.00
2022-11-15T00:59:07.218Z,38.97
2022-11-15T01:04:26.495Z,40.17
2022-11-15T01:09:45.608Z,40.42
2022-11-15T01:15:07.338Z,40.45
2022-11-15T01:20:26.941Z,41.13
2022-11-15T01:25:46.362Z,40.03
2022-11-15T01:31:08.399Z,38.83
2022-11-15T01:36:27.913Z,41.03
2022-11-15T01:41:46.941Z,42.50
2022-11-15T01:47:11.039Z,40.92
2022-11-15T01:52:33.275Z,40.35
2022-11-15T01:57:55.321Z,42.65
2022-11-15T02:03:16.266Z,39.78
2022-11-15T02:08:35.334Z,38.95
2022-11-15T02:13:54.780Z,37.85
2022-11-15T02:19:31.429Z,37.85
2022-11-15T02:25:05.717Z,39.90
2022-11-15T02:30:37.447Z,38.63
2022-11-15T02:36:01.612Z,38.47
2022-11-15T02:41:28.139Z,39.03
2022-11-15T02:47:10.819Z,37.90
2022-11-15T02:52:30.360Z,35.63
2022-11-15T02:57:55.422Z,35.42
2022-11-15T03:03:30.959Z,36.70
2022-11-15T03:09:00.031Z,35.10
2022-11-15T03:14:25.863Z,36.90
2022-11-15T03:19:49.538Z,34.67
2022-11-15T03:25:12.421Z,36.20
2022-11-15T03:30:35.092Z,35.85
2022-11-15T03:35:56.830Z,36.17
2022-11-15T03:41:24.463Z,34.53
2022-11-15T03:46:49.280Z,33.03
2022-11-15T03:52:12.562Z,33.67
2022-11-15T03:57:32.016Z,35.10
2022-11-15T04:02:51.411Z,32.65
2022-11-15T04:08:11.859Z,33.90
2022-11-15T04:13:31.409Z,32.97
2022-11-15T04:19:10.801Z,32.75
2022-11-15T04:24:31.751Z,32.20
2022-11-15T04:29:50.963Z,30.95
2022-11-15T04:35:11.067Z,34.08
2022-11-15T04:40:31.621Z,30.88
2022-11-15T04:45:50.860Z,32.83
2022-11-15T04:51:10.226Z,31.77
2022-11-15T04:56:30.730Z,31.27
2022-11-15T05:01:49.936Z,31.20
2022-11-15T05:07:09.072Z,30.92
2022-11-15T05:12:30.059Z,30.60
2022-11-15T05:17:49.106Z,30.58
2022-11-15T05:23:08.329Z,31.13
2022-11-15T05:28:29.271Z,31.60
2022-11-15T05:33:48.572Z,31.52
2022-11-15T05:39:09.423Z,30.40
2022-11-15T05:44:30.582Z,33.33
2022-11-15T05:49:51.566Z,33.35
2022-11-15T05:55:11.356Z,30.50
2022-11-15T06:00:32.163Z,30.42
2022-11-15T06:05:51.395Z,31.00
2022-11-15T06:11:10.585Z,28.92
2022-11-15T06:16:31.014Z,29.70
2022-11-15T06:21:50.259Z,30.55
2022-11-15T06:27:09.339Z,30.15
2022-11-15T06:32:31.087Z,28.45
2022-11-15T06:37:50.159Z,30.42
2022-11-15T06:43:09.585Z,28.45
2022-11-15T06:48:30.760Z,28.00
2022-11-15T06:53:50.032Z,27.48
2022-11-15T06:59:09.599Z,28.52
2022-11-15T07:04:29.998Z,27.17
2022-11-15T07:09:49.178Z,25.42
2022-11-15T07:15:09.451Z,25.55
2022-11-15T07:20:30.027Z,25.10
2022-11-15T07:25:49.030Z,26.65
2022-11-15T07:31:10.185Z,25.15
2022-11-15T07:36:30.874Z,27.20
2022-11-15T07:41:50.565Z,26.48
2022-11-15T07:47:10.057Z,26.38
2022-11-15T07:52:30.686Z,25.13
2022-11-15T07:57:50.061Z,25.10
2022-11-15T08:03:11.227Z,24.02
2022-11-15T08:08:32.042Z,24.27
2022-11-15T08:13:51.303Z,23.60
2022-11-15T08:19:10.610Z,22.98
2022-11-15T08:24:31.104Z,22.95
2022-11-15T08:29:51.826Z,21.48
2022-11-15T08:35:13.542Z,21.23
2022-11-15T08:40:34.660Z,21.13
2022-11-15T08:45:53.878Z,21.85
2022-11-15T08:51:13.105Z,22.63
2022-11-15T08:56:33.769Z,20.95
2022-11-15T09:01:53.128Z,22.25
2022-11-15T09:07:13.568Z,21.27
2022-11-15T09:12:34.421Z,21.50
2022-11-15T09:17:53.873Z,20.48
2022-11-15T09:23:12.915Z,21.58
2022-11-15T09:28:35.446Z,20.73
2022-11-15T09:33:55.031Z,19.17
2022-11-15T09:39:14.447Z,20.48
2022-11-15T09:44:44.875Z,19.00
2022-11-15T09:50:11.840Z,18.80
2022-11-15T09:55:22.479Z,18.45
2022-11-15T10:00:48.735Z,18.13
2022-11-15T10:05:53.104Z,19.58
2022-11-15T10:11:22.698Z,20.80
2022-11-15T10:16:39.715Z,17.58
2022-11-15T10:21:53.588Z,17.95
2022-11-15T10:26:54.458Z,16.33
2022-11-15T10:31:56.607Z,16.40
2022-11-15T10:36:58.760Z,16.38
2022-11-15T10:42:00.500Z,16.65
2022-11-15T10:47:23.333Z,16.70
2022-11-15T10:52:25.190Z,17.15
2022-11-15T10:57:28.879Z,16.83
2022-11-15T11:02:34.103Z,17.40
2022-11-15T11:07:36.947Z,16.75
2022-11-15T11:12:37.788Z,16.77
2022-11-15T11:17:53.513Z,16.25
2022-11-15T11:23:04.882Z,15.63
2022-11-15T11:28:28.993Z,14.57
2022-11-15T11:33:35.527Z,15.80
2022-11-15T11:38:55.870Z,14.68
2022-11-15T11:44:07.059Z,15.88
2022-11-15T11:49:14.477Z,15.40
2022-11-15T11:54:22.181Z,14.38
2022-11-15T11:59:28.177Z,15.73
2022-11-15T12:04:33.035Z,14.63
2022-11-15T12:09:39.032Z,16.40
2022-11-15T12:14:45.893Z,14.90
2022-11-15T12:19:48.157Z,16.35
2022-11-15T12:24:55.621Z,15.98
2022-11-15T12:30:00.372Z,14.50
2022-11-15T12:35:03.962Z,15.70
2022-11-15T12:40:32.448Z,16.10
2022-11-15T12:45:35.708Z,14.85
2022-11-15T12:50:59.119Z,15.82
2022-11-15T12:56:22.707Z,14.88
2022-11-15T13:02:01.915Z,14.18
2022-11-15T13:07:06.096Z,16.63
2022-11-15T13:12:14.593Z,15.90
2022-11-15T13:17:31.863Z,15.82
2022-11-15T13:23:00.242Z,15.55
2022-11-15T13:28:07.768Z,15.00
2022-11-15T13:33:15.739Z,15.93
2022-11-15T13:38:27.214Z,15.20
2022-11-15T13:43:38.041Z,15.43
2022-11-15T13:48:39.013Z,14.50
2022-11-15T13:53:47.710Z,15.95
2022-11-15T13:58:49.063Z,15.98
2022-11-15T14:03:53.616Z,16.05
2022-11-15T14:09:16.629Z,15.95
2022-11-15T14:14:17.522Z,17.23
2022-11-15T14:19:40.579Z,15.82
2022-11-15T14:24:44.415Z,15.93
2022-11-15T14:29:45.210Z,17.25
2022-11-15T14:34:46.314Z,17.20
2022-11-15T14:39:48.767Z,18.02
2022-11-15T14:44:49.583Z,16.25
2022-11-15T14:49:50.390Z,17.25
2022-11-15T14:54:52.928Z,16.83
2022-11-15T14:59:53.875Z,16.90
2022-11-15T15:04:55.489Z,16.58
2022-11-15T15:10:24.578Z,16.83
2022-11-15T15:15:22.289Z,17.60
2022-11-15T15:20:23.167Z,18.15
2022-11-15T15:25:28.917Z,17.02
2022-11-15T15:30:31.726Z,17.52
2022-11-15T15:35:35.442Z,17.88
2022-11-15T15:40:37.790Z,16.50
2022-11-15T15:45:40.401Z,19.42
2022-11-15T15:50:43.762Z,17.08
2022-11-15T15:55:46.493Z,18.30
2022-11-15T16:00:47.295Z,19.25
2022-11-15T16:05:48.230Z,18.08
2022-11-15T16:10:51.612Z,19.40
2022-11-15T16:15:55.185Z,21.10
2022-11-15T16:20:57.726Z,19.70
2022-11-15T16:25:59.947Z,19.13
2022-11-15T16:31:05.361Z,19.48
2022-11-15T16:36:08.477Z,19.23
2022-11-15T16:41:10.649Z,19.70
2022-11-15T16:46:17.993Z,19.92
2022-11-15T16:51:20.570Z,20.42
2022-11-15T16:56:26.034Z,22.02
2022-11-15T17:01:28.655Z,19.98
2022-11-15T17:06:29.590Z,19.02
2022-11-15T17:11:31.757Z,18.95
2022-11-15T17:16:34.442Z,19.17
2022-11-15T17:21:35.238Z,18.65
2022-11-15T17:26:40.519Z,19.77
2022-11-15T17:31:44.332Z,20.10
2022-11-15T17:36:45.606Z,19.67
2022-11-15T17:41:48.135Z,19.90
2022-11-15T17:46:48.929Z,19.00
2022-11-15T17:51:50.293Z,19.52
2022-11-15T17:56:52.552Z,18.75
2022-11-15T18:01:54.006Z,19.10
2022-11-15T18:06:55.362Z,20.85
2022-11-15T18:11:58.646Z,19.73
2022-11-15T18:16:59.493Z,19.65
2022-11-15T18:22:01.365Z,19.88
2022-11-15T18:27:05.534Z,19.88
2022-11-15T18:32:11.630Z,18.25
2022-11-15T18:37:12.638Z,18.48
2022-11-15T18:42:15.395Z,17.38
2022-11-15T18:47:16.211Z,18.63
2022-11-15T18:52:17.006Z,17.83
2022-11-15T18:57:19.232Z,18.33
2022-11-15T19:02:20.103Z,18.50
2022-11-15T19:07:20.872Z,18.90
2022-11-15T19:12:23.135Z,16.52
2022-11-15T19:17:23.988Z,17.63
2022-11-15T19:22:25.111Z,17.40
2022-11-15T19:27:27.393Z,16.48
2022-11-15T19:32:29.270Z,16.42
2022-11-15T19:37:30.241Z,15.23
2022-11-15T19:42:32.374Z,15.85
2022-11-15T19:47:33.181Z,14.50
2022-11-15T19:52:34.061Z,15.27
2022-11-15T19:57:36.287Z,14.95
2022-11-15T20:02:37.081Z,13.70
2022-11-15T20:07:37.986Z,13.55
2022-11-15T20:12:40.192Z,13.65
2022-11-15T20:17:41.031Z,13.77
2022-11-15T20:22:41.831Z,12.88
2022-11-15T20:27:44.106Z,13.68
2022-11-15T20:32:44.961Z,13.85
2022-11-15T20:37:46.768Z,13.95
2022-11-15T20:42:48.956Z,13.15
2022-11-15T20:47:49.773Z,14.18
2022-11-15T20:52:50.646Z,14.57
2022-11-15T20:57:53.168Z,14.10
2022-11-15T21:02:54.041Z,13.27
2022-11-15T21:07:54.843Z,14.40
2022-11-15T21:12:57.114Z,12.90
2022-11-15T21:17:57.969Z,12.63
2022-11-15T21:22:58.736Z,12.35
2022-11-15T21:28:00.936Z,12.80
2022-11-15T21:33:01.704Z,13.55
2022-11-15T21:38:02.542Z,12.27
2022-11-15T21:43:04.687Z,12.88
2022-11-15T21:48:06.188Z,11.85
2022-11-15T21:53:06.982Z,11.98
2022-11-15T21:58:09.135Z,13.23
2022-11-15T22:03:09.939Z,12.13
2022-11-15T22:08:10.810Z,12.20
2022-11-15T22:13:13.010Z,12.63
2022-11-15T22:18:14.030Z,12.52
2022-11-15T22:23:14.875Z,12.73
2022-11-15T22:28:17.338Z,12.43
2022-11-15T22:33:19.997Z,11.93
2022-11-15T22:38:21.320Z,11.15
2022-11-15T22:43:25.880Z,12.43
2022-11-15T22:48:28.245Z,11.48
2022-11-15T22:53:30.419Z,11.38
2022-11-15T22:58:33.890Z,10.73
2022-11-15T23:03:35.672Z,9.90
2022-11-15T23:08:37.008Z,11.00
2022-11-15T23:13:39.425Z,10.63
2022-11-15T23:18:42.252Z,10.18
2022-11-15T23:23:43.416Z,9.88
2022-11-15T23:28:45.590Z,9.18
2022-11-15T23:33:58.502Z,9.82
2022-11-15T23:38:59.355Z,10.57
2022-11-15T23:44:01.654Z,10.07
2022-11-15T23:49:02.702Z,10.07
2022-11-15T23:54:03.562Z,9.65
2022-11-15T23:59:06.009Z,9.60
